Time;durP1;ratioP1;P1;durP2;ratioP2;P2;SDS_P1;SDS_P2;PMS_P1;PMS_P2;Temp;Humidity;BMP_temperature;BMP_pressure;BME280_temperature;BME280_humidity;BME280_pressure;Samples;Min_cycle;Max_cycle;Signal;HPM_P1;HPM_P2
2023/04/07 00:01:33;;;;;;;31.80;24.05;;;;;;;;;;4905215;29;20469;-72
2023/04/07 00:03:59;;;;;;;31.75;24.35;;;;;;;;;;4897769;29;20055;-72
2023/04/07 00:06:26;;;;;;;31.00;24.67;;;;;;;;;;4898322;29;20059;-72
2023/04/07 00:08:52;;;;;;;31.15;25.10;;;;;;;;;;4889109;29;20052;-73
2023/04/07 00:11:18;;;;;;;29.48;23.08;;;;;;;;;;4890408;29;20083;-73
2023/04/07 00:13:44;;;;;;;31.63;24.63;;;;;;;;;;4874983;29;20040;-73
2023/04/07 00:16:10;;;;;;;32.53;23.85;;;;;;;;;;4874319;29;20051;-72
2023/04/07 00:18:36;;;;;;;30.13;25.33;;;;;;;;;;4906422;29;20048;-73
2023/04/07 00:21:03;;;;;;;29.75;23.63;;;;;;;;;;4887096;29;20063;-73
2023/04/07 00:23:29;;;;;;;31.70;23.70;;;;;;;;;;4889782;29;20130;-73
2023/04/07 00:25:55;;;;;;;29.60;22.98;;;;;;;;;;4882056;29;20039;-73
2023/04/07 00:28:21;;;;;;;32.53;22.92;;;;;;;;;;4890246;29;20110;-74
2023/04/07 00:30:47;;;;;;;28.33;21.65;;;;;;;;;;4881971;29;20052;-72
2023/04/07 00:33:13;;;;;;;28.95;21.85;;;;;;;;;;4886108;29;20174;-72
2023/04/07 00:35:39;;;;;;;29.30;21.58;;;;;;;;;;4887315;29;20131;-72
2023/04/07 00:38:05;;;;;;;28.92;21.00;;;;;;;;;;4885584;29;20168;-73
2023/04/07 00:40:32;;;;;;;29.63;21.50;;;;;;;;;;4866001;29;20055;-72
2023/04/07 00:42:58;;;;;;;25.10;21.02;;;;;;;;;;4884569;29;20111;-73
2023/04/07 00:45:24;;;;;;;26.65;21.30;;;;;;;;;;4886774;29;20126;-72
2023/04/07 00:47:50;;;;;;;28.65;21.35;;;;;;;;;;4885687;29;20400;-73
2023/04/07 00:50:16;;;;;;;24.75;20.33;;;;;;;;;;4870729;29;20673;-73
2023/04/07 00:52:42;;;;;;;26.75;21.35;;;;;;;;;;4865127;29;20059;-72
2023/04/07 00:55:08;;;;;;;25.83;20.50;;;;;;;;;;4883950;29;20043;-73
2023/04/07 00:57:34;;;;;;;27.15;20.48;;;;;;;;;;4883427;29;20127;-73
2023/04/07 01:00:00;;;;;;;25.67;19.95;;;;;;;;;;4886129;29;20047;-74
2023/04/07 01:02:26;;;;;;;27.40;20.45;;;;;;;;;;4883572;29;20460;-73
2023/04/07 01:05:02;;;;;;;24.92;20.38;;;;;;;;;;4882908;29;20051;-73
2023/04/07 01:07:34;;;;;;;24.83;19.35;;;;;;;;;;4883209;29;20048;-73
2023/04/07 01:10:09;;;;;;;25.17;20.10;;;;;;;;;;4886784;29;20048;-73
2023/04/07 01:12:54;;;;;;;26.33;19.55;;;;;;;;;;4883145;29;20138;-73
2023/04/07 01:15:21;;;;;;;23.70;19.35;;;;;;;;;;4884583;29;20054;-73
2023/04/07 01:17:55;;;;;;;24.27;19.73;;;;;;;;;;4907562;29;21916;-73
2023/04/07 01:20:23;;;;;;;26.73;19.70;;;;;;;;;;4869351;29;20186;-73
2023/04/07 01:22:56;;;;;;;25.38;19.27;;;;;;;;;;4902189;28;20352;-73
2023/04/07 01:25:30;;;;;;;23.85;18.15;;;;;;;;;;4886113;29;20055;-74
2023/04/07 01:28:05;;;;;;;24.17;19.73;;;;;;;;;;4887748;29;20052;-73
2023/04/07 01:30:32;;;;;;;25.77;20.73;;;;;;;;;;4884562;29;20051;-73
2023/04/07 01:32:59;;;;;;;25.17;20.00;;;;;;;;;;4893097;28;20914;-74
2023/04/07 01:35:27;;;;;;;23.02;19.60;;;;;;;;;;4874843;29;21206;-73
2023/04/07 01:37:53;;;;;;;25.00;20.15;;;;;;;;;;4875338;29;20047;-73
2023/04/07 01:40:21;;;;;;;26.27;20.05;;;;;;;;;;4874469;29;20079;-73
2023/04/07 01:42:48;;;;;;;25.40;19.73;;;;;;;;;;4880757;29;20473;-73
2023/04/07 01:45:14;;;;;;;23.75;19.70;;;;;;;;;;4900979;29;20051;-73
2023/04/07 01:47:40;;;;;;;26.45;20.48;;;;;;;;;;4893718;29;20051;-73
2023/04/07 01:50:08;;;;;;;23.63;19.38;;;;;;;;;;4882108;29;20048;-73
2023/04/07 01:52:35;;;;;;;24.42;19.50;;;;;;;;;;4883234;29;20044;-73
2023/04/07 01:55:03;;;;;;;25.10;19.27;;;;;;;;;;4875470;29;20099;-73
2023/04/07 01:57:29;;;;;;;23.23;19.55;;;;;;;;;;4870050;29;20073;-73
2023/04/07 01:59:55;;;;;;;25.08;19.85;;;;;;;;;;4882544;29;20047;-73
2023/04/07 02:02:21;;;;;;;24.63;20.10;;;;;;;;;;4886299;29;20058;-73
2023/04/07 02:05:09;;;;;;;27.55;20.92;;;;;;;;;;4885602;29;20055;-73
2023/04/07 02:07:39;;;;;;;28.75;21.30;;;;;;;;;;4902042;29;20051;-73
2023/04/07 02:10:06;;;;;;;23.52;19.90;;;;;;;;;;4888445;29;20050;-73
2023/04/07 02:12:34;;;;;;;27.00;20.55;;;;;;;;;;4884343;29;20039;-71
2023/04/07 02:15:00;;;;;;;25.15;19.98;;;;;;;;;;4870487;29;20127;-73
2023/04/07 02:17:28;;;;;;;32.05;21.05;;;;;;;;;;4875425;29;20040;-71
2023/04/07 02:19:56;;;;;;;29.30;20.55;;;;;;;;;;4875645;29;20039;-73
2023/04/07 02:22:22;;;;;;;24.92;19.80;;;;;;;;;;4860167;29;20060;-73
2023/04/07 02:24:48;;;;;;;23.27;19.23;;;;;;;;;;4883867;29;20083;-74
2023/04/07 02:27:14;;;;;;;23.15;19.73;;;;;;;;;;4877382;29;20039;-73
2023/04/07 02:29:40;;;;;;;24.75;19.58;;;;;;;;;;4871942;29;20048;-73
2023/04/07 02:32:06;;;;;;;22.98;20.02;;;;;;;;;;4872891;29;20599;-73
2023/04/07 02:34:32;;;;;;;24.35;19.83;;;;;;;;;;4869412;29;20091;-72
2023/04/07 02:36:58;;;;;;;27.45;19.92;;;;;;;;;;4855661;29;20732;-72
2023/04/07 02:39:24;;;;;;;24.08;19.42;;;;;;;;;;4875295;29;22186;-72
2023/04/07 02:41:50;;;;;;;25.25;19.60;;;;;;;;;;4880098;29;20583;-72
2023/04/07 02:44:16;;;;;;;31.95;20.00;;;;;;;;;;4877203;29;20771;-72
2023/04/07 02:46:42;;;;;;;26.40;20.58;;;;;;;;;;4880285;29;20417;-73
2023/04/07 02:49:09;;;;;;;24.58;20.17;;;;;;;;;;4879370;29;20159;-72
2023/04/07 02:51:35;;;;;;;26.02;21.13;;;;;;;;;;4880517;29;20094;-73
2023/04/07 02:54:01;;;;;;;28.02;21.60;;;;;;;;;;4869251;29;20044;-73
2023/04/07 02:56:27;;;;;;;33.05;22.70;;;;;;;;;;4860611;29;20048;-73
2023/04/07 02:58:53;;;;;;;30.50;23.02;;;;;;;;;;4880705;29;20571;-73
2023/04/07 03:01:19;;;;;;;33.55;22.67;;;;;;;;;;4889566;29;20051;-72
2023/04/07 03:03:46;;;;;;;27.17;21.92;;;;;;;;;;4888993;29;20062;-72
2023/04/07 03:06:12;;;;;;;31.83;22.10;;;;;;;;;;4888843;29;20048;-73
2023/04/07 03:08:39;;;;;;;26.67;21.45;;;;;;;;;;4871432;29;20043;-74
2023/04/07 03:11:05;;;;;;;31.23;24.65;;;;;;;;;;4891350;29;20090;-73
2023/04/07 03:13:31;;;;;;;32.15;23.15;;;;;;;;;;4891524;29;20119;-73
2023/04/07 03:15:57;;;;;;;29.45;23.08;;;;;;;;;;4888425;29;20071;-73
2023/04/07 03:18:23;;;;;;;36.70;23.30;;;;;;;;;;4874730;29;20556;-73
2023/04/07 03:20:51;;;;;;;34.25;21.70;;;;;;;;;;4888732;29;20122;-73
2023/04/07 03:23:18;;;;;;;29.77;21.95;;;;;;;;;;4895541;29;20057;-73
2023/04/07 03:25:44;;;;;;;28.02;20.60;;;;;;;;;;4894780;29;20052;-73
2023/04/07 03:28:10;;;;;;;28.42;20.08;;;;;;;;;;4892677;29;20052;-73
2023/04/07 03:30:36;;;;;;;25.52;19.75;;;;;;;;;;4891151;29;20062;-73
2023/04/07 03:33:02;;;;;;;26.55;19.67;;;;;;;;;;4893585;29;20051;-73
2023/04/07 03:35:29;;;;;;;26.25;20.92;;;;;;;;;;4873702;29;20070;-73
2023/04/07 03:37:55;;;;;;;28.80;20.55;;;;;;;;;;4878808;29;20162;-75
2023/04/07 03:40:21;;;;;;;22.88;19.08;;;;;;;;;;4859644;29;20146;-76
2023/04/07 03:42:47;;;;;;;26.92;20.30;;;;;;;;;;4881615;29;20090;-75
2023/04/07 03:45:13;;;;;;;26.13;20.13;;;;;;;;;;4877600;29;20055;-76
2023/04/07 03:47:40;;;;;;;25.05;19.65;;;;;;;;;;4880029;29;21096;-76
2023/04/07 03:50:06;;;;;;;24.15;19.77;;;;;;;;;;4884881;29;20054;-76
2023/04/07 03:52:32;;;;;;;24.85;20.30;;;;;;;;;;4889316;29;20054;-76
2023/04/07 03:54:58;;;;;;;25.73;20.58;;;;;;;;;;4881084;29;20118;-76
2023/04/07 03:57:24;;;;;;;25.90;20.17;;;;;;;;;;4855507;29;20048;-76
2023/04/07 03:59:50;;;;;;;23.88;18.55;;;;;;;;;;4880290;29;20047;-74
2023/04/07 04:02:17;;;;;;;25.80;20.38;;;;;;;;;;4867670;29;20102;-73
2023/04/07 04:04:43;;;;;;;26.45;19.17;;;;;;;;;;4885481;29;20051;-73
2023/04/07 04:07:09;;;;;;;27.58;19.92;;;;;;;;;;4889287;29;20474;-75
2023/04/07 04:09:35;;;;;;;23.33;18.30;;;;;;;;;;4893651;29;20055;-73
2023/04/07 04:12:01;;;;;;;26.27;18.83;;;;;;;;;;4874078;29;20059;-74
2023/04/07 04:14:27;;;;;;;27.73;19.77;;;;;;;;;;4890803;29;20043;-74
2023/04/07 04:16:54;;;;;;;27.02;20.50;;;;;;;;;;4874615;29;20043;-74
2023/04/07 04:19:20;;;;;;;23.35;18.92;;;;;;;;;;4898906;28;20039;-73
2023/04/07 04:21:46;;;;;;;28.40;19.08;;;;;;;;;;4880092;29;20190;-74
2023/04/07 04:24:12;;;;;;;24.85;19.55;;;;;;;;;;4884191;29;20055;-74
2023/04/07 04:26:38;;;;;;;26.35;20.27;;;;;;;;;;4865289;29;20732;-74
2023/04/07 04:29:05;;;;;;;30.30;20.83;;;;;;;;;;4845011;29;20854;-73
2023/04/07 04:31:31;;;;;;;28.35;20.17;;;;;;;;;;4878785;29;20447;-73
2023/04/07 04:33:57;;;;;;;28.65;21.20;;;;;;;;;;4860395;29;20075;-74
2023/04/07 04:36:23;;;;;;;27.13;20.20;;;;;;;;;;4878369;29;20044;-74
2023/04/07 04:38:49;;;;;;;30.05;20.52;;;;;;;;;;4861121;29;20071;-74
2023/04/07 04:41:15;;;;;;;29.58;20.08;;;;;;;;;;4865537;29;20162;-74
2023/04/07 04:43:41;;;;;;;26.88;20.55;;;;;;;;;;4880402;29;20059;-74
2023/04/07 04:46:07;;;;;;;28.60;21.17;;;;;;;;;;4893761;29;20980;-74
2023/04/07 04:48:33;;;;;;;30.13;21.45;;;;;;;;;;4871282;29;20044;-74
2023/04/07 04:50:59;;;;;;;34.45;21.50;;;;;;;;;;4883957;29;20113;-74
2023/04/07 04:53:26;;;;;;;30.40;21.30;;;;;;;;;;4891701;29;20058;-74
2023/04/07 04:55:52;;;;;;;30.60;20.27;;;;;;;;;;4892376;29;20047;-73
2023/04/07 04:58:18;;;;;;;28.45;20.40;;;;;;;;;;4888165;29;20563;-74
2023/04/07 05:00:45;;;;;;;26.58;19.30;;;;;;;;;;4904972;29;20055;-74
2023/04/07 05:03:11;;;;;;;25.00;18.35;;;;;;;;;;4874251;29;20070;-74
2023/04/07 05:05:37;;;;;;;26.75;19.52;;;;;;;;;;4889723;29;20085;-75
2023/04/07 05:08:03;;;;;;;25.85;19.30;;;;;;;;;;4875677;29;20079;-75
2023/04/07 05:10:29;;;;;;;28.02;20.13;;;;;;;;;;4895087;29;20288;-73
2023/04/07 05:12:56;;;;;;;27.42;21.38;;;;;;;;;;4897252;29;21850;-74
2023/04/07 05:15:22;;;;;;;31.50;23.70;;;;;;;;;;4882834;29;20048;-75
2023/04/07 05:17:49;;;;;;;30.27;21.23;;;;;;;;;;4898292;29;20054;-75
2023/04/07 05:20:16;;;;;;;30.40;23.08;;;;;;;;;;4891447;29;20403;-75
2023/04/07 05:22:42;;;;;;;30.63;24.45;;;;;;;;;;4891976;29;20110;-75
2023/04/07 05:25:08;;;;;;;31.83;24.17;;;;;;;;;;4906568;29;20098;-76
2023/04/07 05:27:34;;;;;;;29.55;24.10;;;;;;;;;;4908104;29;20056;-75
2023/04/07 05:30:00;;;;;;;31.85;23.85;;;;;;;;;;4891339;29;20059;-75
2023/04/07 05:32:28;;;;;;;34.15;24.83;;;;;;;;;;4906459;29;20059;-75
2023/04/07 05:34:54;;;;;;;34.42;26.35;;;;;;;;;;4887305;29;20048;-74
2023/04/07 05:37:20;;;;;;;33.10;25.77;;;;;;;;;;4874880;29;20043;-74
2023/04/07 05:39:46;;;;;;;36.95;26.85;;;;;;;;;;4878875;29;20618;-74
2023/04/07 05:42:12;;;;;;;34.08;25.83;;;;;;;;;;4902316;29;20062;-74
2023/04/07 05:44:39;;;;;;;37.72;27.08;;;;;;;;;;4888058;29;20175;-74
2023/04/07 05:47:07;;;;;;;38.85;26.20;;;;;;;;;;4891327;29;20416;-75
2023/04/07 05:49:36;;;;;;;35.80;27.60;;;;;;;;;;4874026;29;20067;-74
2023/04/07 05:52:04;;;;;;;34.22;26.63;;;;;;;;;;4891145;29;20047;-74
2023/04/07 05:54:33;;;;;;;37.83;27.50;;;;;;;;;;4890070;29;20043;-74
2023/04/07 05:56:59;;;;;;;41.40;26.40;;;;;;;;;;4892030;29;20043;-74
2023/04/07 05:59:26;;;;;;;39.50;27.70;;;;;;;;;;4893400;29;20040;-75
2023/04/07 06:01:52;;;;;;;37.08;27.83;;;;;;;;;;4911850;29;20096;-75
2023/04/07 06:04:18;;;;;;;34.00;25.10;;;;;;;;;;4891731;29;20048;-75
2023/04/07 06:06:44;;;;;;;34.05;25.65;;;;;;;;;;4895651;29;20131;-75
2023/04/07 06:09:11;;;;;;;33.55;25.42;;;;;;;;;;4876502;29;20052;-75
2023/04/07 06:11:37;;;;;;;36.83;25.17;;;;;;;;;;4860637;29;20056;-75
2023/04/07 06:14:03;;;;;;;31.75;25.25;;;;;;;;;;4892322;29;20500;-75
2023/04/07 06:16:29;;;;;;;34.65;26.60;;;;;;;;;;4894553;29;20051;-75
2023/04/07 06:18:55;;;;;;;33.33;25.67;;;;;;;;;;4890007;29;20164;-74
2023/04/07 06:21:21;;;;;;;33.47;25.10;;;;;;;;;;4895412;29;20423;-75
2023/04/07 06:23:47;;;;;;;33.75;25.98;;;;;;;;;;4877280;29;20091;-74
2023/04/07 06:26:13;;;;;;;35.13;27.17;;;;;;;;;;4864956;29;20067;-74
2023/04/07 06:28:40;;;;;;;34.70;27.27;;;;;;;;;;4892315;29;20338;-74
2023/04/07 06:31:06;;;;;;;37.10;27.33;;;;;;;;;;4893361;29;20460;-74
2023/04/07 06:33:32;;;;;;;36.35;27.30;;;;;;;;;;4893512;29;21015;-75
2023/04/07 06:35:58;;;;;;;38.40;28.55;;;;;;;;;;4891707;29;20083;-74
2023/04/07 06:38:24;;;;;;;37.75;28.75;;;;;;;;;;4873980;29;20039;-74
2023/04/07 06:40:51;;;;;;;38.33;27.70;;;;;;;;;;4891696;29;20098;-73
2023/04/07 06:43:17;;;;;;;37.22;27.63;;;;;;;;;;4893457;29;20162;-74
2023/04/07 06:45:43;;;;;;;40.28;27.33;;;;;;;;;;4896698;29;20140;-74
2023/04/07 06:48:09;;;;;;;45.95;29.70;;;;;;;;;;4881138;29;21348;-74
2023/04/07 06:50:37;;;;;;;37.22;29.05;;;;;;;;;;4897100;29;20051;-74
2023/04/07 06:53:03;;;;;;;36.45;27.50;;;;;;;;;;4903498;29;20043;-73
2023/04/07 06:55:29;;;;;;;38.58;27.13;;;;;;;;;;4900048;29;20047;-74
2023/04/07 06:57:55;;;;;;;36.40;27.13;;;;;;;;;;4891431;29;20050;-73
2023/04/07 07:00:24;;;;;;;38.03;25.20;;;;;;;;;;4894333;29;20196;-73
2023/04/07 07:02:50;;;;;;;33.95;26.27;;;;;;;;;;4913183;29;20052;-74
2023/04/07 07:05:16;;;;;;;35.38;26.52;;;;;;;;;;4897468;29;20053;-74
2023/04/07 07:07:42;;;;;;;36.45;26.85;;;;;;;;;;4896163;29;20050;-74
2023/04/07 07:10:12;;;;;;;34.47;25.73;;;;;;;;;;4897313;29;20047;-74
2023/04/07 07:12:38;;;;;;;34.67;24.88;;;;;;;;;;4903556;28;21035;-74
2023/04/07 07:15:04;;;;;;;35.78;25.30;;;;;;;;;;4908146;28;20134;-74
2023/04/07 07:17:30;;;;;;;30.05;23.80;;;;;;;;;;4894642;29;20055;-74
2023/04/07 07:19:56;;;;;;;31.52;23.60;;;;;;;;;;4892410;29;20086;-74
2023/04/07 07:22:22;;;;;;;31.92;23.90;;;;;;;;;;4888742;29;20051;-75
2023/04/07 07:24:49;;;;;;;28.83;22.90;;;;;;;;;;4878378;29;20056;-75
2023/04/07 07:27:16;;;;;;;29.25;23.05;;;;;;;;;;4893021;29;20074;-74
2023/04/07 07:29:42;;;;;;;30.35;22.33;;;;;;;;;;4885651;29;20176;-75
2023/04/07 07:32:08;;;;;;;28.33;22.23;;;;;;;;;;4892755;29;20059;-75
2023/04/07 07:34:34;;;;;;;29.55;21.98;;;;;;;;;;4876224;29;20112;-75
2023/04/07 07:37:00;;;;;;;29.23;21.98;;;;;;;;;;4892801;29;20054;-75
2023/04/07 07:39:27;;;;;;;28.92;21.45;;;;;;;;;;4876981;29;20059;-75
2023/04/07 07:41:54;;;;;;;27.95;21.30;;;;;;;;;;4895968;29;20520;-75
2023/04/07 07:44:21;;;;;;;28.80;21.05;;;;;;;;;;4888060;29;20059;-74
2023/04/07 07:46:48;;;;;;;26.67;20.88;;;;;;;;;;4867978;29;20584;-73
2023/04/07 07:49:14;;;;;;;26.17;20.45;;;;;;;;;;4894485;29;20079;-73
2023/04/07 07:51:40;;;;;;;25.25;19.77;;;;;;;;;;4893810;29;20184;-74
2023/04/07 07:54:08;;;;;;;24.33;19.25;;;;;;;;;;4893169;29;20047;-74
2023/04/07 07:56:34;;;;;;;26.88;19.75;;;;;;;;;;4875214;29;20738;-74
2023/04/07 07:59:00;;;;;;;23.00;18.65;;;;;;;;;;4907806;29;20047;-74
2023/04/07 08:01:26;;;;;;;22.55;18.10;;;;;;;;;;4887530;29;20102;-74
2023/04/07 08:03:53;;;;;;;26.60;19.15;;;;;;;;;;4889361;29;20120;-74
2023/04/07 08:06:19;;;;;;;23.23;17.67;;;;;;;;;;4905003;29;22573;-75
2023/04/07 08:08:45;;;;;;;22.23;18.00;;;;;;;;;;4870999;29;20151;-76
2023/04/07 08:11:11;;;;;;;21.23;17.25;;;;;;;;;;4888810;29;20048;-75
2023/04/07 08:13:38;;;;;;;21.45;17.90;;;;;;;;;;4889246;29;20505;-74
2023/04/07 08:16:05;;;;;;;21.55;16.85;;;;;;;;;;4902375;29;20099;-75
2023/04/07 08:18:31;;;;;;;20.88;17.17;;;;;;;;;;4893571;29;20043;-74
2023/04/07 08:20:58;;;;;;;21.23;17.13;;;;;;;;;;4892251;29;20051;-74
2023/04/07 08:23:24;;;;;;;21.10;16.30;;;;;;;;;;4878452;29;20522;-76
2023/04/07 08:25:50;;;;;;;19.52;16.50;;;;;;;;;;4892321;29;20118;-74
2023/04/07 08:28:16;;;;;;;23.88;16.98;;;;;;;;;;4895165;29;20044;-73
2023/04/07 08:30:42;;;;;;;20.30;16.60;;;;;;;;;;4893246;29;20062;-74
2023/04/07 08:33:11;;;;;;;19.25;15.45;;;;;;;;;;4895896;29;20438;-75
2023/04/07 08:35:37;;;;;;;21.00;16.17;;;;;;;;;;4893327;29;20052;-74
2023/04/07 08:38:04;;;;;;;20.10;15.77;;;;;;;;;;4894055;29;20040;-74
2023/04/07 08:40:32;;;;;;;20.35;16.27;;;;;;;;;;4894740;29;20725;-75
2023/04/07 08:43:00;;;;;;;18.60;15.95;;;;;;;;;;4890160;29;20405;-74
2023/04/07 08:45:26;;;;;;;23.33;16.67;;;;;;;;;;4887297;29;20370;-74
2023/04/07 08:47:56;;;;;;;21.23;14.98;;;;;;;;;;4891241;29;20170;-73
2023/04/07 08:50:23;;;;;;;22.58;16.00;;;;;;;;;;4872550;29;20054;-74
2023/04/07 08:52:51;;;;;;;20.25;15.30;;;;;;;;;;4889175;29;20047;-73
2023/04/07 08:55:18;;;;;;;18.75;15.18;;;;;;;;;;4886680;29;20040;-74
2023/04/07 08:57:44;;;;;;;16.58;14.68;;;;;;;;;;4873280;29;20067;-74
2023/04/07 09:00:11;;;;;;;18.65;14.60;;;;;;;;;;4872599;29;20047;-75
2023/04/07 09:02:38;;;;;;;19.75;14.93;;;;;;;;;;4910399;29;20055;-74
2023/04/07 09:05:06;;;;;;;17.38;13.77;;;;;;;;;;4891712;29;21000;-74
2023/04/07 09:07:33;;;;;;;17.60;14.48;;;;;;;;;;4892042;29;20568;-76
2023/04/07 09:10:00;;;;;;;16.88;14.10;;;;;;;;;;4894086;29;20427;-80
2023/04/07 09:12:27;;;;;;;16.27;13.52;;;;;;;;;;4892365;29;20064;-79
2023/04/07 09:14:53;;;;;;;16.85;14.38;;;;;;;;;;4896495;29;20039;-80
2023/04/07 09:17:20;;;;;;;20.70;14.23;;;;;;;;;;4896962;29;20496;-79
2023/04/07 09:19:46;;;;;;;16.30;12.98;;;;;;;;;;4895669;29;20492;-79
2023/04/07 09:22:13;;;;;;;16.75;13.85;;;;;;;;;;4910924;29;20056;-79
2023/04/07 09:24:40;;;;;;;28.98;14.05;;;;;;;;;;4894378;29;20059;-80
2023/04/07 09:27:10;;;;;;;16.65;13.85;;;;;;;;;;4896686;29;20051;-79
2023/04/07 09:29:36;;;;;;;19.05;14.00;;;;;;;;;;4915875;29;20052;-79
2023/04/07 09:32:02;;;;;;;19.77;14.45;;;;;;;;;;4879610;29;20054;-80
2023/04/07 09:34:33;;;;;;;18.65;14.50;;;;;;;;;;4898323;29;20043;-80
2023/04/07 09:36:59;;;;;;;15.70;13.10;;;;;;;;;;4896153;29;20544;-80
2023/04/07 09:39:26;;;;;;;15.27;12.82;;;;;;;;;;4896883;29;20384;-80
2023/04/07 09:41:52;;;;;;;14.60;11.70;;;;;;;;;;4897060;29;21877;-80
2023/04/07 09:44:19;;;;;;;14.63;12.15;;;;;;;;;;4896475;29;20111;-81
2023/04/07 09:46:58;;;;;;;13.55;11.25;;;;;;;;;;4879783;29;20416;-80
2023/04/07 09:49:26;;;;;;;13.68;12.20;;;;;;;;;;4901460;29;20055;-80
2023/04/07 09:51:59;;;;;;;11.45;10.27;;;;;;;;;;4898426;29;20055;-80
2023/04/07 09:54:36;;;;;;;11.90;10.50;;;;;;;;;;4884983;29;20035;-80
2023/04/07 09:57:03;;;;;;;14.05;10.98;;;;;;;;;;4899070;29;20047;-80
2023/04/07 09:59:30;;;;;;;13.30;9.90;;;;;;;;;;4880175;29;20035;-80
2023/04/07 10:01:56;;;;;;;11.02;9.90;;;;;;;;;;4890841;29;20427;-79
2023/04/07 10:04:23;;;;;;;11.27;9.60;;;;;;;;;;4905635;29;20058;-79
2023/04/07 10:06:49;;;;;;;13.68;10.27;;;;;;;;;;4903340;29;20058;-78
2023/04/07 10:09:16;;;;;;;10.88;9.77;;;;;;;;;;4897057;29;20053;-79
2023/04/07 10:11:43;;;;;;;14.60;10.70;;;;;;;;;;4898333;29;20139;-79
2023/04/07 10:14:10;;;;;;;12.18;10.52;;;;;;;;;;4897182;29;20051;-80
2023/04/07 10:16:37;;;;;;;11.45;10.25;;;;;;;;;;4896065;29;20047;-80
2023/04/07 10:39:17;;;;;;;12.98;11.38;;;;;;;;;;4929048;23;20099;-75
2023/04/07 10:41:43;;;;;;;14.45;11.38;;;;;;;;;;4884577;29;20060;-81
2023/04/07 10:56:09;;;;;;;13.60;11.25;;;;;;;;;;4903959;29;20067;-74
2023/04/07 10:58:36;;;;;;;15.80;11.07;;;;;;;;;;5349337;23;20067;-72
2023/04/07 11:01:09;;;;;;;13.10;11.68;;;;;;;;;;5430464;23;20037;31
2023/04/07 11:03:52;;;;;;;13.88;11.05;;;;;;;;;;5600812;23;20094;-74
2023/04/07 11:06:18;;;;;;;14.93;11.45;;;;;;;;;;4878189;29;21880;-74
2023/04/07 11:08:45;;;;;;;13.70;11.40;;;;;;;;;;4878656;29;20048;-75
2023/04/07 11:11:13;;;;;;;13.85;12.45;;;;;;;;;;4871628;29;20515;-75
2023/04/07 11:13:45;;;;;;;15.07;11.63;;;;;;;;;;4869290;29;20072;-76
2023/04/07 11:16:12;;;;;;;12.65;11.27;;;;;;;;;;4877013;29;20052;-76
2023/04/07 11:18:38;;;;;;;13.00;11.43;;;;;;;;;;4893317;29;20080;-76
2023/04/07 11:21:05;;;;;;;14.30;12.10;;;;;;;;;;4895865;29;20539;-75
2023/04/07 11:23:41;;;;;;;13.23;11.82;;;;;;;;;;4873623;29;20060;-76
2023/04/07 11:26:10;;;;;;;13.25;11.57;;;;;;;;;;4868325;29;20571;-76
2023/04/07 11:28:45;;;;;;;13.38;11.30;;;;;;;;;;4866249;29;20548;-76
2023/04/07 11:31:11;;;;;;;12.63;11.27;;;;;;;;;;4857714;29;20043;-76
2023/04/07 11:33:38;;;;;;;15.65;12.25;;;;;;;;;;4887766;29;20044;-76
2023/04/07 11:36:06;;;;;;;13.73;12.00;;;;;;;;;;4885386;29;20049;-76
2023/04/07 11:38:36;;;;;;;12.35;10.90;;;;;;;;;;4870282;29;20095;-80
2023/04/07 11:41:11;;;;;;;12.23;10.80;;;;;;;;;;4871140;29;20055;-81
2023/04/07 11:43:38;;;;;;;13.68;11.60;;;;;;;;;;4889394;29;20058;-80
2023/04/07 11:46:09;;;;;;;12.75;11.13;;;;;;;;;;4885014;29;20063;-80
2023/04/07 11:48:35;;;;;;;13.77;11.27;;;;;;;;;;4886935;29;21697;-81
2023/04/07 11:51:02;;;;;;;13.98;10.98;;;;;;;;;;4886179;29;20126;-81
2023/04/07 11:53:29;;;;;;;14.05;11.82;;;;;;;;;;4870074;29;20059;-80
2023/04/07 11:56:09;;;;;;;14.82;11.13;;;;;;;;;;4887204;29;20507;-81
2023/04/07 11:58:35;;;;;;;13.32;11.57;;;;;;;;;;4871730;29;20048;-81
2023/04/07 12:01:07;;;;;;;12.52;11.23;;;;;;;;;;4853381;29;20115;-81
2023/04/07 12:03:37;;;;;;;15.80;12.75;;;;;;;;;;4869730;29;20067;-81
2023/04/07 12:06:03;;;;;;;15.00;11.93;;;;;;;;;;4868405;29;20764;-81
2023/04/07 12:08:36;;;;;;;15.10;11.80;;;;;;;;;;4879814;29;20103;-81
2023/04/07 12:11:03;;;;;;;15.82;11.32;;;;;;;;;;4866541;29;20079;-81
2023/04/07 12:13:30;;;;;;;16.92;12.07;;;;;;;;;;4869919;29;20076;-81
2023/04/07 12:15:56;;;;;;;15.45;12.73;;;;;;;;;;4876687;29;20079;-81
2023/04/07 12:18:24;;;;;;;14.23;12.10;;;;;;;;;;4867967;29;20124;-81
2023/04/07 12:20:50;;;;;;;14.00;12.32;;;;;;;;;;4863754;29;20458;-81
2023/04/07 12:23:17;;;;;;;14.05;12.35;;;;;;;;;;4849955;29;20049;-81
2023/04/07 12:25:43;;;;;;;15.55;12.68;;;;;;;;;;4865620;29;20523;-81
2023/04/07 12:28:09;;;;;;;16.42;13.10;;;;;;;;;;4865801;29;20170;-81
2023/04/07 12:30:36;;;;;;;16.85;13.23;;;;;;;;;;4864402;29;20594;-80
2023/04/07 12:33:02;;;;;;;15.00;12.93;;;;;;;;;;4868432;29;20072;-76
2023/04/07 12:35:29;;;;;;;15.70;13.45;;;;;;;;;;4864193;29;20112;-77
2023/04/07 12:37:56;;;;;;;15.55;13.40;;;;;;;;;;4866713;29;20117;-79
2023/04/07 12:40:23;;;;;;;15.68;12.82;;;;;;;;;;4866571;29;20513;-76
2023/04/07 12:42:49;;;;;;;15.75;12.93;;;;;;;;;;4864374;29;20945;-76
2023/04/07 12:45:15;;;;;;;18.58;13.38;;;;;;;;;;4849811;29;21866;-77
2023/04/07 12:47:41;;;;;;;18.48;13.50;;;;;;;;;;4849390;29;20064;-76
2023/04/07 12:50:07;;;;;;;15.68;13.38;;;;;;;;;;4863128;29;20134;-76
2023/04/07 12:52:33;;;;;;;19.63;13.40;;;;;;;;;;4878728;29;20063;-76
2023/04/07 12:54:59;;;;;;;15.93;12.88;;;;;;;;;;4868366;29;20175;-76
2023/04/07 12:57:26;;;;;;;19.35;13.43;;;;;;;;;;4864647;29;20055;-76
2023/04/07 12:59:53;;;;;;;16.25;13.20;;;;;;;;;;4863847;29;20052;-76
2023/04/07 13:02:19;;;;;;;17.25;12.63;;;;;;;;;;4847756;29;20055;-76
2023/04/07 13:04:46;;;;;;;15.18;13.25;;;;;;;;;;4877085;29;20060;-76
2023/04/07 13:07:15;;;;;;;16.15;13.10;;;;;;;;;;4880518;29;20060;-75
2023/04/07 13:09:44;;;;;;;17.45;13.23;;;;;;;;;;4864955;29;20507;-76
2023/04/07 13:12:11;;;;;;;15.60;12.73;;;;;;;;;;4848292;29;20048;-76
2023/04/07 13:14:38;;;;;;;17.70;12.70;;;;;;;;;;4866465;29;20072;-76
2023/04/07 13:17:04;;;;;;;16.10;12.88;;;;;;;;;;4844179;29;20092;-75
2023/04/07 13:19:31;;;;;;;16.67;12.43;;;;;;;;;;4846289;29;20497;-75
2023/04/07 13:21:57;;;;;;;17.75;12.75;;;;;;;;;;4862767;29;20048;-76
2023/04/07 13:24:24;;;;;;;17.38;13.10;;;;;;;;;;4878365;29;20053;-75
2023/04/07 13:26:51;;;;;;;16.98;13.45;;;;;;;;;;4847297;29;22080;-76
2023/04/07 13:29:17;;;;;;;14.90;12.18;;;;;;;;;;4863683;29;20798;-76
2023/04/07 13:31:47;;;;;;;16.00;12.63;;;;;;;;;;4871425;29;23055;-81
2023/04/07 13:34:13;;;;;;;16.63;13.15;;;;;;;;;;4870765;29;20107;-80
2023/04/07 13:36:40;;;;;;;19.88;12.27;;;;;;;;;;4870416;29;20051;-80
2023/04/07 13:39:06;;;;;;;16.35;12.85;;;;;;;;;;4889049;29;20060;-80
2023/04/07 13:41:43;;;;;;;20.15;12.63;;;;;;;;;;4878277;29;20624;-81
2023/04/07 13:44:09;;;;;;;15.93;12.32;;;;;;;;;;4894850;29;20187;-79
2023/04/07 13:46:54;;;;;;;16.33;11.80;;;;;;;;;;4873865;29;20182;-81
2023/04/07 13:49:21;;;;;;;19.77;12.55;;;;;;;;;;4872267;29;20142;-81
2023/04/07 13:51:50;;;;;;;16.85;12.05;;;;;;;;;;4883530;29;20481;-77
2023/04/07 13:54:17;;;;;;;17.40;11.57;;;;;;;;;;4866777;29;20382;-76
2023/04/07 13:56:43;;;;;;;15.13;11.43;;;;;;;;;;4853833;29;20040;-76
2023/04/07 13:59:09;;;;;;;13.20;11.10;;;;;;;;;;4872232;29;20062;-76
2023/04/07 14:01:38;;;;;;;14.40;11.13;;;;;;;;;;4875902;29;20055;-81
2023/04/07 14:04:05;;;;;;;16.40;12.07;;;;;;;;;;4864402;29;20408;-80
2023/04/07 14:06:31;;;;;;;15.68;11.00;;;;;;;;;;4890550;29;20064;-82
2023/04/07 14:08:57;;;;;;;12.65;10.30;;;;;;;;;;4853938;29;20648;-81
2023/04/07 14:11:23;;;;;;;12.20;9.98;;;;;;;;;;4882610;29;20126;-81
2023/04/07 14:13:50;;;;;;;13.20;10.57;;;;;;;;;;4874766;29;20351;-82
2023/04/07 14:16:17;;;;;;;12.73;10.35;;;;;;;;;;4899164;29;20717;-80
2023/04/07 14:18:43;;;;;;;12.20;9.85;;;;;;;;;;4889129;29;20104;-80
2023/04/07 14:21:10;;;;;;;15.00;10.38;;;;;;;;;;4885791;29;20048;-81
2023/04/07 14:23:36;;;;;;;17.35;10.68;;;;;;;;;;4881502;29;20052;-81
2023/04/07 14:26:02;;;;;;;12.23;10.75;;;;;;;;;;4894320;29;20445;-80
2023/04/07 14:28:29;;;;;;;14.27;10.27;;;;;;;;;;4890138;29;20051;-81
2023/04/07 14:30:55;;;;;;;13.48;10.45;;;;;;;;;;4885888;29;20291;-81
2023/04/07 14:33:21;;;;;;;13.07;10.48;;;;;;;;;;4885491;29;20093;-79
2023/04/07 14:35:48;;;;;;;15.13;11.02;;;;;;;;;;4892068;29;20543;-81
2023/04/07 14:38:14;;;;;;;13.52;9.95;;;;;;;;;;4889388;29;20075;-79
2023/04/07 14:40:40;;;;;;;14.32;10.50;;;;;;;;;;4889949;29;20044;-80
2023/04/07 14:43:09;;;;;;;14.48;10.35;;;;;;;;;;4907068;29;20246;-81
2023/04/07 14:45:35;;;;;;;16.48;10.35;;;;;;;;;;4894411;29;20056;-81
2023/04/07 14:48:01;;;;;;;13.48;10.77;;;;;;;;;;4894869;29;20044;-81